createdAt,value
2019-02-08T00:01:37.891Z,99525.06
2019-02-08T00:04:08.596Z,99525.91
2019-02-08T00:06:39.052Z,99520.53
2019-02-08T00:09:11.010Z,99507.64
2019-02-08T00:11:41.437Z,99503.20
2019-02-08T00:14:12.496Z,99503.89
2019-02-08T00:16:42.933Z,99504.95
2019-02-08T00:19:14.430Z,99503.41
2019-02-08T00:21:44.902Z,99497.59
2019-02-08T00:24:15.357Z,99504.59
2019-02-08T00:26:45.830Z,99508.30
2019-02-08T00:29:16.273Z,99507.94
2019-02-08T00:31:46.721Z,99513.92
2019-02-08T00:34:17.610Z,99517.06
2019-02-08T00:36:48.014Z,99521.16
2019-02-08T00:39:18.502Z,99522.45
2019-02-08T00:41:50.086Z,99523.15
2019-02-08T00:44:20.526Z,99526.98
2019-02-08T00:46:51.388Z,99526.72
2019-02-08T00:49:21.851Z,99530.79
2019-02-08T00:51:52.323Z,99531.65
2019-02-08T00:54:22.752Z,99528.44
2019-02-08T00:56:53.567Z,99540.91
2019-02-08T00:59:24.030Z,99539.48
2019-02-08T01:01:54.467Z,99540.41
2019-02-08T01:04:24.939Z,99542.33
2019-02-08T01:06:55.368Z,99551.72
2019-02-08T01:09:26.146Z,99555.16
2019-02-08T01:11:56.612Z,99553.84
2019-02-08T01:14:27.044Z,99553.70
2019-02-08T01:16:57.520Z,99558.92
2019-02-08T01:19:27.957Z,99556.18
2019-02-08T01:21:58.392Z,99555.12
2019-02-08T01:24:28.854Z,99552.75
2019-02-08T01:26:59.692Z,99555.72
2019-02-08T01:29:30.276Z,99558.20
2019-02-08T01:32:01.037Z,99561.24
2019-02-08T01:34:31.465Z,99562.62
2019-02-08T01:37:01.929Z,99561.84
2019-02-08T01:39:32.767Z,99562.20
2019-02-08T01:42:03.349Z,99562.01
2019-02-08T01:44:33.784Z,99564.02
2019-02-08T01:47:04.325Z,99562.83
2019-02-08T01:49:34.804Z,99555.26
2019-02-08T01:52:05.241Z,99562.60
2019-02-08T01:54:35.712Z,99557.67
2019-02-08T01:57:06.491Z,99559.00
2019-02-08T01:59:36.924Z,99566.34
2019-02-08T02:02:07.827Z,99567.49
2019-02-08T02:04:38.664Z,99574.83
2019-02-08T02:07:09.146Z,99577.88
2019-02-08T02:09:40.216Z,99574.67
2019-02-08T02:12:10.648Z,99584.55
2019-02-08T02:14:41.112Z,99581.70
2019-02-08T02:17:11.540Z,99579.98
2019-02-08T02:19:42.050Z,99577.38
2019-02-08T02:22:13.547Z,99576.05
2019-02-08T02:24:44.560Z,99576.41
2019-02-08T02:27:15.016Z,99570.55
2019-02-08T02:29:45.757Z,99577.55
2019-02-08T02:32:16.232Z,99577.65
2019-02-08T02:34:47.000Z,99583.64
2019-02-08T02:37:17.427Z,99574.98
2019-02-08T02:39:47.887Z,99582.94
2019-02-08T02:42:18.317Z,99575.00
2019-02-08T02:44:50.147Z,99573.11
2019-02-08T02:47:20.584Z,99577.02
2019-02-08T02:49:51.038Z,99573.45
2019-02-08T02:52:21.981Z,99574.52
2019-02-08T02:54:52.684Z,99576.09
2019-02-08T02:57:23.160Z,99573.81
2019-02-08T02:59:53.596Z,99576.45
2019-02-08T03:02:24.385Z,99577.50
2019-02-08T03:04:54.995Z,99569.33
2019-02-08T03:07:25.422Z,99580.14
2019-02-08T03:09:55.896Z,99579.73
2019-02-08T03:12:26.332Z,99582.14
2019-02-08T03:14:56.758Z,99581.55
2019-02-08T03:17:27.212Z,99572.28
2019-02-08T03:19:57.636Z,99581.41
2019-02-08T03:22:28.107Z,99579.83
2019-02-08T03:24:58.869Z,99577.42
2019-02-08T03:27:29.300Z,99568.29
2019-02-08T03:30:00.290Z,99571.80
2019-02-08T03:32:30.744Z,99576.46
2019-02-08T03:35:01.216Z,99571.89
2019-02-08T03:37:31.646Z,99568.32
2019-02-08T03:40:02.090Z,99571.40
2019-02-08T03:42:32.629Z,99573.84
2019-02-08T03:45:03.047Z,99570.94
2019-02-08T03:47:33.512Z,99574.83
2019-02-08T03:50:05.416Z,99573.58
2019-02-08T03:52:35.848Z,99571.92
2019-02-08T03:55:07.281Z,99578.88
2019-02-08T03:57:37.709Z,99580.59
2019-02-08T04:00:21.906Z,99583.07
2019-02-08T04:02:52.328Z,99583.56
2019-02-08T04:05:22.755Z,99578.92
2019-02-08T04:07:54.194Z,99586.52
2019-02-08T04:10:24.831Z,99588.16
2019-02-08T04:12:55.291Z,99593.34
2019-02-08T04:15:26.436Z,99600.21
2019-02-08T04:17:56.867Z,99596.03
2019-02-08T04:20:27.437Z,99598.88
2019-02-08T04:22:58.053Z,99594.80
2019-02-08T04:25:28.525Z,99603.90
2019-02-08T04:27:58.953Z,99590.65
2019-02-08T04:30:30.144Z,99577.45
2019-02-08T04:33:01.314Z,99592.62
2019-02-08T04:35:31.835Z,99591.94
2019-02-08T04:38:02.315Z,99587.95
2019-02-08T04:40:32.738Z,99591.58
2019-02-08T04:43:03.162Z,99592.05
2019-02-08T04:45:33.613Z,99581.80
2019-02-08T04:48:04.135Z,99583.93
2019-02-08T04:50:34.611Z,99585.95
2019-02-08T04:53:05.077Z,99589.98
2019-02-08T04:55:35.504Z,99595.27
2019-02-08T04:58:05.959Z,99590.80
2019-02-08T05:00:37.242Z,99587.91
2019-02-08T05:03:08.057Z,99584.42
2019-02-08T05:05:38.484Z,99583.85
2019-02-08T05:08:08.916Z,99594.20
2019-02-08T05:10:39.362Z,99591.55
2019-02-08T05:13:09.798Z,99593.88
2019-02-08T05:15:40.267Z,99587.69
2019-02-08T05:18:10.695Z,99577.37
2019-02-08T05:20:41.124Z,99573.30
2019-02-08T05:23:11.581Z,99576.69
2019-02-08T05:25:41.999Z,99580.40
2019-02-08T05:28:12.474Z,99573.16
2019-02-08T05:30:43.052Z,99577.78
2019-02-08T05:33:13.808Z,99574.75
2019-02-08T05:35:44.265Z,99578.45
2019-02-08T05:38:14.692Z,99573.40
2019-02-08T05:40:45.168Z,99582.20
2019-02-08T05:43:15.594Z,99574.75
2019-02-08T05:45:46.024Z,99567.77
2019-02-08T05:48:16.762Z,99567.56
2019-02-08T05:50:47.186Z,99568.03
2019-02-08T05:53:17.700Z,99559.63
2019-02-08T05:55:48.130Z,99557.61
2019-02-08T05:58:18.933Z,99560.13
2019-02-08T06:00:55.041Z,99564.31
2019-02-08T06:03:25.579Z,99560.97
2019-02-08T06:05:56.420Z,99564.81
2019-02-08T06:08:26.850Z,99564.08
2019-02-08T06:10:57.623Z,99570.83
2019-02-08T06:13:28.157Z,99568.05
2019-02-08T06:15:59.285Z,99566.09
2019-02-08T06:18:29.741Z,99579.18
2019-02-08T06:21:00.177Z,99571.87
2019-02-08T06:23:31.912Z,99573.53
2019-02-08T06:26:02.344Z,99561.16
2019-02-08T06:28:33.076Z,99561.42
2019-02-08T06:31:03.529Z,99553.72
2019-02-08T06:33:33.952Z,99552.16
2019-02-08T06:36:04.520Z,99557.94
2019-02-08T06:38:35.368Z,99544.59
2019-02-08T06:41:06.135Z,99547.22
2019-02-08T06:43:36.592Z,99545.45
2019-02-08T06:46:07.390Z,99548.95
2019-02-08T06:48:37.854Z,99551.00
2019-02-08T06:51:08.310Z,99545.58
2019-02-08T06:53:39.407Z,99545.81
2019-02-08T06:56:28.857Z,99553.85
2019-02-08T06:59:14.242Z,99553.47
2019-02-08T07:02:03.938Z,99546.85
2019-02-08T07:04:46.748Z,99560.91
2019-02-08T07:07:29.235Z,99557.20
2019-02-08T07:10:16.516Z,99562.56
2019-02-08T07:13:09.289Z,99564.38
2019-02-08T07:15:58.650Z,99571.20
2019-02-08T07:18:51.164Z,99573.71
2019-02-08T07:21:47.007Z,99578.07
2019-02-08T07:24:30.418Z,99582.94
2019-02-08T07:27:09.112Z,99584.42
2019-02-08T07:30:07.305Z,99588.00
2019-02-08T07:33:02.480Z,99584.03
2019-02-08T07:36:01.180Z,99580.20
2019-02-08T07:38:44.167Z,99591.58
2019-02-08T07:41:36.966Z,99585.35
2019-02-08T07:44:37.398Z,99592.67
2019-02-08T07:47:29.944Z,99589.95
2019-02-08T07:50:17.666Z,99589.27
2019-02-08T07:53:06.239Z,99586.72
2019-02-08T07:55:52.300Z,99594.78
2019-02-08T07:58:35.445Z,99589.59
2019-02-08T08:01:20.187Z,99581.52
2019-02-08T08:04:02.091Z,99586.91
2019-02-08T08:06:55.362Z,99602.75
2019-02-08T08:09:44.744Z,99589.28
2019-02-08T08:12:49.863Z,99590.14
2019-02-08T08:15:55.514Z,99589.50
2019-02-08T08:18:41.215Z,99578.92
2019-02-08T08:21:30.988Z,99585.77
2019-02-08T08:24:30.283Z,99590.56
2019-02-08T08:27:23.668Z,99585.09
2019-02-08T08:30:27.789Z,99580.88
2019-02-08T08:33:28.671Z,99585.03
2019-02-08T08:36:34.013Z,99576.73
2019-02-08T08:39:47.775Z,99587.41
2019-02-08T08:43:02.429Z,99582.19
2019-02-08T08:46:15.444Z,99568.63
2019-02-08T08:49:28.556Z,99562.69
2019-02-08T08:52:18.714Z,99567.13
2019-02-08T08:55:54.148Z,99562.67
2019-02-08T08:59:01.691Z,99560.79
2019-02-08T09:02:22.251Z,99557.01
2019-02-08T09:05:41.276Z,99562.64
2019-02-08T09:08:54.452Z,99562.09
2019-02-08T09:12:01.392Z,99572.61
2019-02-08T09:15:37.687Z,99576.50
2019-02-08T09:18:49.094Z,99578.52
2019-02-08T09:22:18.905Z,99572.55
2019-02-08T09:25:25.376Z,99570.18
2019-02-08T09:28:27.975Z,99560.78
2019-02-08T09:31:41.697Z,99565.19
2019-02-08T09:34:55.232Z,99565.98
2019-02-08T09:38:09.573Z,99561.13
2019-02-08T09:41:14.265Z,99565.07
2019-02-08T09:44:38.080Z,99562.20
2019-02-08T09:47:56.949Z,99559.91
2019-02-08T09:50:56.299Z,99562.66
2019-02-08T09:53:48.676Z,99552.55
2019-02-08T09:57:02.106Z,99549.73
2019-02-08T10:00:28.804Z,99558.44
2019-02-08T10:03:32.788Z,99555.11
2019-02-08T10:06:46.716Z,99556.43
2019-02-08T10:09:53.645Z,99552.18
2019-02-08T10:12:51.960Z,99559.61
2019-02-08T10:16:11.948Z,99566.37
2019-02-08T10:19:16.160Z,99546.11
2019-02-08T10:22:23.513Z,99550.14
2019-02-08T10:25:53.189Z,99545.86
2019-02-08T10:29:23.476Z,99551.13
2019-02-08T10:32:25.103Z,99541.41
2019-02-08T10:35:39.867Z,99538.58
2019-02-08T10:38:53.390Z,99545.89
2019-02-08T10:42:03.470Z,99547.34
2019-02-08T10:45:48.215Z,99554.21
2019-02-08T10:49:07.886Z,99549.16
2019-02-08T10:52:33.696Z,99537.91
2019-02-08T10:55:53.235Z,99537.50
2019-02-08T10:58:49.566Z,99527.06
2019-02-08T11:01:59.248Z,99526.59
2019-02-08T11:04:53.111Z,99533.64
2019-02-08T11:08:07.202Z,99527.34
2019-02-08T11:11:08.878Z,99518.55
2019-02-08T11:14:07.906Z,99518.45
2019-02-08T11:17:14.158Z,99514.02
2019-02-08T11:19:42.859Z,99510.30
2019-02-08T11:22:13.298Z,99496.22
2019-02-08T11:24:43.722Z,99492.70
2019-02-08T11:27:14.195Z,99491.76
2019-02-08T11:29:44.663Z,99490.08
2019-02-08T11:32:15.131Z,99496.70
2019-02-08T11:34:45.555Z,99490.17
2019-02-08T11:37:16.412Z,99478.70
2019-02-08T11:39:47.201Z,99480.42
2019-02-08T11:42:17.628Z,99473.89
2019-02-08T11:44:48.115Z,99465.27
2019-02-08T11:47:18.548Z,99461.88
2019-02-08T11:49:48.977Z,99456.33
2019-02-08T11:52:19.470Z,99465.39
2019-02-08T11:54:49.911Z,99459.42
2019-02-08T11:57:20.452Z,99457.98
2019-02-08T11:59:50.864Z,99458.38
2019-02-08T12:02:21.289Z,99453.03
2019-02-08T12:04:51.748Z,99451.17
2019-02-08T12:07:22.175Z,99453.41
2019-02-08T12:09:52.646Z,99447.30
2019-02-08T12:12:23.460Z,99445.78
2019-02-08T12:14:53.938Z,99444.61
2019-02-08T12:17:24.358Z,99456.00
2019-02-08T12:19:54.782Z,99453.61
2019-02-08T12:22:25.236Z,99448.72
2019-02-08T12:24:55.972Z,99447.84
2019-02-08T12:27:27.676Z,99450.80
2019-02-08T12:29:58.119Z,99439.34
2019-02-08T12:32:28.540Z,99437.31
2019-02-08T12:34:59.372Z,99441.89
2019-02-08T12:37:30.107Z,99444.98
2019-02-08T12:40:00.985Z,99447.43
2019-02-08T12:42:31.417Z,99440.52
2019-02-08T12:45:01.854Z,99440.49
2019-02-08T12:47:32.304Z,99448.22
2019-02-08T12:50:02.753Z,99447.17
2019-02-08T12:52:33.546Z,99438.36
2019-02-08T12:55:04.272Z,99432.66
2019-02-08T12:57:34.696Z,99428.55
2019-02-08T13:00:06.703Z,99435.95
2019-02-08T13:02:37.127Z,99416.34
2019-02-08T13:05:09.059Z,99416.34
2019-02-08T13:07:39.484Z,99407.73
2019-02-08T13:10:11.312Z,99412.52
2019-02-08T13:12:41.772Z,99397.88
2019-02-08T13:15:13.047Z,99401.97
2019-02-08T13:17:44.941Z,99386.73
2019-02-08T13:20:17.287Z,99384.45
2019-02-08T13:22:49.170Z,99373.58
2019-02-08T13:25:19.941Z,99369.50
2019-02-08T13:27:50.483Z,99387.14
2019-02-08T13:30:24.203Z,99375.84
2019-02-08T13:32:54.637Z,99375.58
2019-02-08T13:35:25.401Z,99366.05
2019-02-08T13:37:56.343Z,99363.95
2019-02-08T13:40:26.943Z,99354.95
2019-02-08T13:42:57.533Z,99353.47
2019-02-08T13:45:28.318Z,99347.48
2019-02-08T13:47:58.754Z,99335.66
2019-02-08T13:50:29.693Z,99337.31
2019-02-08T13:53:00.206Z,99341.47
2019-02-08T13:55:31.031Z,99351.66
2019-02-08T13:58:01.629Z,99349.73
2019-02-08T14:00:34.353Z,99354.66
2019-02-08T14:03:05.523Z,99351.23
2019-02-08T14:05:35.951Z,99352.48
2019-02-08T14:08:07.360Z,99347.64
2019-02-08T14:10:37.792Z,99353.30
2019-02-08T14:13:08.550Z,99348.44
2019-02-08T14:15:39.372Z,99344.60
2019-02-08T14:18:09.813Z,99340.33
2019-02-08T14:20:40.319Z,99332.89
2019-02-08T14:23:10.747Z,99321.00
2019-02-08T14:25:41.214Z,99324.06
2019-02-08T14:28:11.653Z,99304.45
2019-02-08T14:30:43.181Z,99305.03
2019-02-08T14:33:13.635Z,99315.49
2019-02-08T14:35:44.372Z,99311.66
2019-02-08T14:38:19.360Z,99306.29
2019-02-08T14:40:50.127Z,99297.08
2019-02-08T14:43:20.611Z,99297.94
2019-02-08T14:45:51.395Z,99296.20
2019-02-08T14:48:22.026Z,99292.75
2019-02-08T14:50:52.483Z,99287.24
2019-02-08T14:53:22.935Z,99285.51
2019-02-08T14:55:53.731Z,99283.38
2019-02-08T14:58:24.168Z,99291.89
2019-02-08T15:00:54.579Z,99283.06
2019-02-08T15:03:25.032Z,99279.60
2019-02-08T15:05:55.458Z,99276.06
2019-02-08T15:08:25.928Z,99278.19
2019-02-08T15:10:56.722Z,99283.19
2019-02-08T15:13:27.530Z,99276.52
2019-02-08T15:15:58.295Z,99272.21
2019-02-08T15:18:29.192Z,99257.53
2019-02-08T15:20:59.637Z,99255.56
2019-02-08T15:23:30.164Z,99255.22
2019-02-08T15:26:00.588Z,99247.72
2019-02-08T15:28:31.021Z,99241.52
2019-02-08T15:31:01.468Z,99242.82
2019-02-08T15:33:31.894Z,99239.66
2019-02-08T15:36:02.746Z,99237.05
2019-02-08T15:38:33.182Z,99234.71
2019-02-08T15:41:03.606Z,99232.23
2019-02-08T15:43:34.068Z,99227.88
2019-02-08T15:46:06.609Z,99212.88
2019-02-08T15:48:37.230Z,99222.82
2019-02-08T15:51:08.585Z,99213.99
2019-02-08T15:53:39.311Z,99209.05
2019-02-08T15:56:13.073Z,99215.83
2019-02-08T15:58:43.504Z,99199.72
2019-02-08T16:01:14.403Z,99200.39
2019-02-08T16:03:44.839Z,99199.19
2019-02-08T16:06:15.855Z,99171.95
2019-02-08T16:08:46.308Z,99195.20
2019-02-08T16:11:16.755Z,99184.28
2019-02-08T16:13:47.220Z,99185.87
2019-02-08T16:16:18.023Z,99192.20
2019-02-08T16:18:48.864Z,99188.05
2019-02-08T16:21:19.535Z,99194.51
2019-02-08T16:23:50.081Z,99196.19
2019-02-08T16:26:20.544Z,99191.72
2019-02-08T16:28:51.710Z,99184.35
2019-02-08T16:31:22.135Z,99187.70
2019-02-08T16:33:54.959Z,99193.69
2019-02-08T16:36:25.759Z,99186.50
2019-02-08T16:38:56.290Z,99189.98
2019-02-08T16:41:26.712Z,99184.61
2019-02-08T16:43:57.138Z,99175.50
2019-02-08T16:46:28.091Z,99179.67
2019-02-08T16:48:59.383Z,99181.83
2019-02-08T16:51:30.223Z,99175.77
2019-02-08T16:54:00.674Z,99170.43
2019-02-08T16:56:31.112Z,99161.73
2019-02-08T16:59:01.650Z,99147.14
2019-02-08T17:01:32.071Z,99139.70
2019-02-08T17:04:02.832Z,99133.08
2019-02-08T17:06:33.253Z,99142.77
2019-02-08T17:09:05.206Z,99134.43
2019-02-08T17:11:35.639Z,99137.41
2019-02-08T17:14:06.399Z,99134.78
2019-02-08T17:16:37.254Z,99142.32
2019-02-08T17:19:07.679Z,99141.67
2019-02-08T17:21:38.107Z,99140.84
2019-02-08T17:24:08.583Z,99142.55
2019-02-08T17:26:39.029Z,99135.70
2019-02-08T17:29:09.903Z,99125.02
2019-02-08T17:31:40.640Z,99117.88
2019-02-08T17:34:11.461Z,99110.59
2019-02-08T17:36:42.935Z,99118.39
2019-02-08T17:39:14.806Z,99106.97
2019-02-08T17:41:45.424Z,99109.95
2019-02-08T17:44:16.475Z,99091.33
2019-02-08T17:46:46.945Z,99076.22
2019-02-08T17:49:17.653Z,99083.02
2019-02-08T17:51:48.078Z,99069.23
2019-02-08T17:54:25.518Z,99064.44
2019-02-08T17:56:52.419Z,99051.86
2019-02-08T17:59:23.143Z,99061.45
2019-02-08T18:01:53.604Z,99036.18
2019-02-08T18:04:27.208Z,99035.36
2019-02-08T18:06:57.792Z,99035.38
2019-02-08T18:09:28.541Z,99035.19
2019-02-08T18:11:58.966Z,99020.03
2019-02-08T18:14:29.420Z,99027.19
2019-02-08T18:16:59.858Z,99014.39
2019-02-08T18:19:30.726Z,99007.09
2019-02-08T18:22:01.146Z,99002.59
2019-02-08T18:24:31.572Z,99008.08
2019-02-08T18:27:02.404Z,98994.10
2019-02-08T18:29:33.225Z,98988.67
2019-02-08T18:32:03.715Z,98996.30
2019-02-08T18:34:34.145Z,98999.12
2019-02-08T18:37:05.054Z,98979.70
2019-02-08T18:39:35.519Z,98982.67
2019-02-08T18:42:06.018Z,98971.37
2019-02-08T18:44:37.260Z,98974.20
2019-02-08T18:47:07.712Z,98944.28
2019-02-08T18:49:38.929Z,98970.22
2019-02-08T18:52:09.738Z,98963.41
2019-02-08T18:54:40.579Z,98963.93
2019-02-08T18:57:11.003Z,98962.41
2019-02-08T18:59:41.544Z,98958.09
2019-02-08T19:02:11.976Z,98957.74
2019-02-08T19:04:42.879Z,98951.78
2019-02-08T19:07:13.618Z,98957.63
2019-02-08T19:09:44.048Z,98962.43
2019-02-08T19:12:14.543Z,98955.61
2019-02-08T19:14:44.979Z,98952.42
2019-02-08T19:17:15.415Z,98951.95
2019-02-08T19:19:45.867Z,98938.49
2019-02-08T19:22:18.852Z,98950.63
2019-02-08T19:24:49.355Z,98939.00
2019-02-08T19:27:20.576Z,98941.79
2019-02-08T19:29:51.430Z,98936.00
2019-02-08T19:32:22.067Z,98924.52
2019-02-08T19:34:52.528Z,98915.72
2019-02-08T19:37:23.412Z,98918.20
2019-02-08T19:39:53.839Z,98913.23
2019-02-08T19:42:25.365Z,98902.75
2019-02-08T19:44:56.136Z,98907.09
2019-02-08T19:47:26.559Z,98904.42
2019-02-08T19:49:57.585Z,98903.41
2019-02-08T19:52:30.019Z,98904.91
2019-02-08T19:55:00.487Z,98896.58
2019-02-08T19:57:30.975Z,98896.06
2019-02-08T20:00:01.350Z,98897.91
2019-02-08T20:02:33.360Z,98884.95
2019-02-08T20:05:05.224Z,98878.31
2019-02-08T20:07:35.708Z,98884.48
2019-02-08T20:10:09.368Z,98869.67
2019-02-08T20:12:39.900Z,98858.38
2019-02-08T20:15:14.065Z,98867.53
2019-02-08T20:17:44.614Z,98855.89
2019-02-08T20:20:16.132Z,98850.05
2019-02-08T20:22:48.367Z,98863.19
2019-02-08T20:25:24.534Z,98846.73
2019-02-08T20:27:55.553Z,98852.22
2019-02-08T20:30:26.814Z,98854.37
2019-02-08T20:32:57.882Z,98845.91
2019-02-08T20:35:29.757Z,98836.94
2019-02-08T20:38:00.760Z,98847.07
2019-02-08T20:40:39.476Z,98839.42
2019-02-08T20:43:09.939Z,98834.28
2019-02-08T20:45:40.848Z,98836.75
2019-02-08T20:48:16.774Z,98827.61
2019-02-08T20:50:47.687Z,98819.81
2019-02-08T20:53:22.705Z,98821.12
2019-02-08T20:55:56.441Z,98811.48
2019-02-08T20:58:27.191Z,98803.34
2019-02-08T21:00:57.638Z,98808.48
2019-02-08T21:03:28.357Z,98802.66
2019-02-08T21:05:58.836Z,98782.04
2019-02-08T21:08:29.843Z,98788.36
2019-02-08T21:11:00.420Z,98780.89
2019-02-08T21:13:32.072Z,98788.20
2019-02-08T21:16:02.505Z,98777.72
2019-02-08T21:18:32.977Z,98779.23
2019-02-08T21:21:03.409Z,98758.63
2019-02-08T21:23:34.043Z,98764.45
2019-02-08T21:26:05.445Z,98771.44
2019-02-08T21:28:36.439Z,98761.45
2019-02-08T21:31:07.395Z,98763.44
2019-02-08T21:33:38.235Z,98756.97
2019-02-08T21:36:08.728Z,98750.15
2019-02-08T21:38:39.164Z,98761.30
2019-02-08T21:41:10.274Z,98755.62
2019-02-08T21:43:40.743Z,98748.98
2019-02-08T21:46:11.176Z,98737.69
2019-02-08T21:48:41.632Z,98735.03
2019-02-08T21:51:12.364Z,98725.55
2019-02-08T21:53:42.987Z,98736.20
2019-02-08T21:56:13.740Z,98729.21
2019-02-08T21:58:44.178Z,98721.73
2019-02-08T22:01:14.692Z,98719.26
2019-02-08T22:03:45.177Z,98712.77
2019-02-08T22:06:15.652Z,98715.11
2019-02-08T22:08:46.078Z,98710.26
2019-02-08T22:11:20.664Z,98707.77
2019-02-08T22:13:51.182Z,98712.92
2019-02-08T22:16:21.629Z,98692.34
2019-02-08T22:18:52.502Z,98697.15
2019-02-08T22:21:25.735Z,98695.14
2019-02-08T22:23:56.332Z,98698.97
2019-02-08T22:26:29.790Z,98701.61
2019-02-08T22:29:00.223Z,98693.83
2019-02-08T22:31:31.036Z,98698.95
2019-02-08T22:34:01.543Z,98700.80
2019-02-08T22:36:32.003Z,98690.84
2019-02-08T22:39:02.449Z,98673.54
2019-02-08T22:41:32.926Z,98673.88
2019-02-08T22:44:07.998Z,98658.23
2019-02-08T22:46:38.893Z,98662.23
2019-02-08T22:49:09.396Z,98649.25
2019-02-08T22:51:39.859Z,98660.89
2019-02-08T22:54:10.342Z,98659.72
2019-02-08T22:56:41.451Z,98672.17
2019-02-08T22:59:11.966Z,98662.53
2019-02-08T23:01:47.892Z,98647.53
2019-02-08T23:04:18.782Z,98655.18
2019-02-08T23:06:49.206Z,98655.20
2019-02-08T23:09:21.664Z,98654.20
2019-02-08T23:11:52.180Z,98656.38
2019-02-08T23:14:22.705Z,98654.73
2019-02-08T23:16:53.173Z,98650.07
2019-02-08T23:19:23.648Z,98643.09
2019-02-08T23:21:55.221Z,98630.63
2019-02-08T23:24:25.819Z,98614.66
2019-02-08T23:26:56.244Z,98607.57
2019-02-08T23:29:30.288Z,98612.19
2019-02-08T23:31:59.218Z,98602.39
2019-02-08T23:34:30.831Z,98615.00
2019-02-08T23:37:01.285Z,98596.72
2019-02-08T23:39:32.058Z,98601.73
2019-02-08T23:42:02.534Z,98601.06
2019-02-08T23:44:32.955Z,98602.57
2019-02-08T23:47:03.384Z,98581.66
2019-02-08T23:49:34.271Z,98587.62
2019-02-08T23:52:04.745Z,98579.00
2019-02-08T23:54:35.203Z,98578.14
2019-02-08T23:57:05.718Z,98571.66
2019-02-08T23:59:38.254Z,98574.64
